createdAt,value
2019-02-19T00:00:08.123Z,5.73
2019-02-19T00:02:39.488Z,6.17
2019-02-19T00:05:09.791Z,6.10
2019-02-19T00:07:40.361Z,6.00
2019-02-19T00:10:10.518Z,6.30
2019-02-19T00:12:40.679Z,6.33
2019-02-19T00:15:11.117Z,5.90
2019-02-19T00:17:41.557Z,5.73
2019-02-19T00:20:12.982Z,5.60
2019-02-19T00:22:43.277Z,5.37
2019-02-19T00:25:13.423Z,5.97
2019-02-19T00:27:43.639Z,5.33
2019-02-19T00:30:13.638Z,5.17
2019-02-19T00:32:43.753Z,5.57
2019-02-19T00:35:14.069Z,5.20
2019-02-19T00:37:45.355Z,5.13
2019-02-19T00:40:15.650Z,5.30
2019-02-19T00:42:45.785Z,5.57
2019-02-19T00:45:16.947Z,4.97
2019-02-19T00:47:47.363Z,5.60
2019-02-19T00:50:17.490Z,5.70
2019-02-19T00:52:47.578Z,5.37
2019-02-19T00:55:17.657Z,6.00
2019-02-19T00:57:47.864Z,5.47
2019-02-19T01:00:18.252Z,5.83
2019-02-19T01:02:48.409Z,5.60
2019-02-19T01:05:18.645Z,6.00
2019-02-19T01:07:48.911Z,5.90
2019-02-19T01:10:19.010Z,5.50
2019-02-19T01:12:53.741Z,4.40
2019-02-19T01:15:25.725Z,4.83
2019-02-19T01:17:55.549Z,5.00
2019-02-19T01:20:25.736Z,4.57
2019-02-19T01:22:55.807Z,5.70
2019-02-19T01:25:25.874Z,5.20
2019-02-19T01:27:56.020Z,5.07
2019-02-19T01:30:26.303Z,4.90
2019-02-19T01:32:56.572Z,5.00
2019-02-19T01:35:26.782Z,4.97
2019-02-19T01:37:56.919Z,5.20
2019-02-19T01:40:27.020Z,4.60
2019-02-19T01:42:57.388Z,5.10
2019-02-19T01:45:33.938Z,4.40
2019-02-19T01:47:59.647Z,4.50
2019-02-19T01:50:29.807Z,5.00
2019-02-19T01:52:59.865Z,4.53
2019-02-19T01:55:30.095Z,4.30
2019-02-19T01:58:00.510Z,4.28
2019-02-19T02:00:30.981Z,4.67
2019-02-19T02:03:01.147Z,4.53
2019-02-19T02:05:31.506Z,4.90
2019-02-19T02:08:01.710Z,4.50
2019-02-19T02:10:31.935Z,4.20
2019-02-19T02:13:02.891Z,4.43
2019-02-19T02:15:32.845Z,4.30
2019-02-19T02:18:03.034Z,4.57
2019-02-19T02:20:33.117Z,4.17
2019-02-19T02:23:03.255Z,4.63
2019-02-19T02:25:33.356Z,3.73
2019-02-19T02:28:03.796Z,3.80
2019-02-19T02:30:33.836Z,3.93
2019-02-19T02:33:04.056Z,4.30
2019-02-19T02:35:34.153Z,4.23
2019-02-19T02:38:04.334Z,4.43
2019-02-19T02:40:35.507Z,4.40
2019-02-19T02:43:06.861Z,4.10
2019-02-19T02:45:37.057Z,4.20
2019-02-19T02:48:07.235Z,4.30
2019-02-19T02:50:39.232Z,4.53
2019-02-19T02:53:09.394Z,4.63
2019-02-19T02:55:39.661Z,4.73
2019-02-19T02:58:10.135Z,4.83
2019-02-19T03:00:40.579Z,4.97
2019-02-19T03:03:11.235Z,4.95
2019-02-19T03:05:51.844Z,5.10
2019-02-19T03:08:22.217Z,5.40
2019-02-19T03:10:52.442Z,4.87
2019-02-19T03:13:22.595Z,5.07
2019-02-19T03:16:01.894Z,5.50
2019-02-19T03:18:25.081Z,5.40
2019-02-19T03:20:55.211Z,5.67
2019-02-19T03:23:25.331Z,5.20
2019-02-19T03:25:55.402Z,5.10
2019-02-19T03:28:25.459Z,5.10
2019-02-19T03:30:55.544Z,5.37
2019-02-19T03:33:25.940Z,6.33
2019-02-19T03:35:55.996Z,5.13
2019-02-19T03:38:26.068Z,5.20
2019-02-19T03:40:56.155Z,5.20
2019-02-19T03:43:26.278Z,5.30
2019-02-19T03:45:56.333Z,5.50
2019-02-19T03:48:26.469Z,5.10
2019-02-19T03:50:56.568Z,5.50
2019-02-19T03:53:26.976Z,5.83
2019-02-19T03:55:57.145Z,5.70
2019-02-19T03:58:27.214Z,5.90
2019-02-19T04:00:57.414Z,5.40
2019-02-19T04:03:27.546Z,6.13
2019-02-19T04:05:57.666Z,6.00
2019-02-19T04:08:27.736Z,5.87
2019-02-19T04:10:58.096Z,6.00
2019-02-19T04:13:28.175Z,5.10
2019-02-19T04:15:58.273Z,5.87
2019-02-19T04:18:28.431Z,6.30
2019-02-19T04:20:58.519Z,5.67
2019-02-19T04:23:28.710Z,5.50
2019-02-19T04:25:59.119Z,5.85
2019-02-19T04:28:29.262Z,6.13
2019-02-19T04:30:59.325Z,5.73
2019-02-19T04:33:29.409Z,5.83
2019-02-19T04:35:59.552Z,5.90
2019-02-19T04:38:29.771Z,6.80
2019-02-19T04:41:01.469Z,6.00
2019-02-19T04:43:31.525Z,6.60
2019-02-19T04:46:01.759Z,6.30
2019-02-19T04:48:32.357Z,6.15
2019-02-19T04:51:02.468Z,7.33
2019-02-19T04:53:32.609Z,5.33
2019-02-19T04:56:02.677Z,6.60
2019-02-19T04:58:32.784Z,6.47
2019-02-19T05:01:02.959Z,6.87
2019-02-19T05:03:33.508Z,7.28
2019-02-19T05:06:03.655Z,8.07
2019-02-19T05:08:33.904Z,7.60
2019-02-19T05:11:04.270Z,7.87
2019-02-19T05:13:34.507Z,7.30
2019-02-19T05:16:04.570Z,6.57
2019-02-19T05:18:35.812Z,7.20
2019-02-19T05:21:05.881Z,7.07
2019-02-19T05:23:36.383Z,8.23
2019-02-19T05:26:07.686Z,6.95
2019-02-19T05:28:37.775Z,8.10
2019-02-19T05:31:08.596Z,7.53
2019-02-19T05:33:38.675Z,7.97
2019-02-19T05:36:09.191Z,7.93
2019-02-19T05:38:39.624Z,8.00
2019-02-19T05:41:11.013Z,7.70
2019-02-19T05:43:41.427Z,8.83
2019-02-19T05:46:11.615Z,7.90
2019-02-19T05:48:41.729Z,9.30
2019-02-19T05:51:11.793Z,8.53
2019-02-19T05:53:41.909Z,10.17
2019-02-19T05:56:12.067Z,9.30
2019-02-19T05:58:42.132Z,8.67
2019-02-19T06:01:12.292Z,9.40
2019-02-19T06:03:42.588Z,8.10
2019-02-19T06:06:12.759Z,9.67
2019-02-19T06:08:42.956Z,11.40
2019-02-19T06:11:13.238Z,9.73
2019-02-19T06:13:43.317Z,10.23
2019-02-19T06:16:13.641Z,9.03
2019-02-19T06:18:43.728Z,9.03
2019-02-19T06:21:13.980Z,10.43
2019-02-19T06:23:44.071Z,10.37
2019-02-19T06:26:14.117Z,10.47
2019-02-19T06:28:45.600Z,9.83
2019-02-19T06:31:16.147Z,9.90
2019-02-19T06:33:46.249Z,9.10
2019-02-19T06:36:16.336Z,9.37
2019-02-19T06:38:46.728Z,10.63
2019-02-19T06:41:17.303Z,10.47
2019-02-19T06:43:47.452Z,9.77
2019-02-19T06:46:19.279Z,9.37
2019-02-19T06:48:49.566Z,9.30
2019-02-19T06:51:20.020Z,12.10
2019-02-19T06:53:50.170Z,10.73
2019-02-19T06:56:20.406Z,9.90
2019-02-19T06:58:50.534Z,10.17
2019-02-19T07:01:38.853Z,10.65
2019-02-19T07:04:15.878Z,9.60
2019-02-19T07:06:46.115Z,8.87
2019-02-19T07:09:16.213Z,10.70
2019-02-19T07:11:46.313Z,9.13
2019-02-19T07:14:16.403Z,9.70
2019-02-19T07:16:48.117Z,10.00
2019-02-19T07:19:18.295Z,10.73
2019-02-19T07:21:48.547Z,15.30
2019-02-19T07:24:18.914Z,10.38
2019-02-19T07:26:48.980Z,10.10
2019-02-19T07:29:19.397Z,10.30
2019-02-19T07:31:49.498Z,11.90
2019-02-19T07:34:19.839Z,8.73
2019-02-19T07:36:50.003Z,9.77
2019-02-19T07:39:20.180Z,9.10
2019-02-19T07:41:50.473Z,9.80
2019-02-19T07:44:20.634Z,9.97
2019-02-19T07:46:50.708Z,9.27
2019-02-19T07:49:21.069Z,10.53
2019-02-19T07:51:51.269Z,10.37
2019-02-19T07:54:21.564Z,10.30
2019-02-19T07:56:51.721Z,9.57
2019-02-19T07:59:23.141Z,9.35
2019-02-19T08:01:53.576Z,9.00
2019-02-19T08:04:23.689Z,10.00
2019-02-19T08:06:54.124Z,8.90
2019-02-19T08:09:24.297Z,14.27
2019-02-19T08:11:54.386Z,11.33
2019-02-19T08:14:25.857Z,9.67
2019-02-19T08:16:57.273Z,9.07
2019-02-19T08:19:27.381Z,9.87
2019-02-19T08:21:57.518Z,9.30
2019-02-19T08:24:27.621Z,9.70
2019-02-19T08:26:57.750Z,9.57
2019-02-19T08:29:27.923Z,9.10
2019-02-19T08:31:58.337Z,9.50
2019-02-19T08:34:28.417Z,9.33
2019-02-19T08:36:58.671Z,9.13
2019-02-19T08:39:28.771Z,10.13
2019-02-19T08:41:58.844Z,10.67
2019-02-19T08:44:29.267Z,9.00
2019-02-19T08:46:59.349Z,9.67
2019-02-19T08:49:29.452Z,9.73
2019-02-19T08:51:59.609Z,9.60
2019-02-19T08:54:29.777Z,10.27
2019-02-19T08:56:59.826Z,9.77
2019-02-19T08:59:30.028Z,9.33
2019-02-19T09:02:00.401Z,10.03
2019-02-19T09:04:30.567Z,9.27
2019-02-19T09:07:00.723Z,9.23
2019-02-19T09:09:30.813Z,9.90
2019-02-19T09:12:00.991Z,9.60
2019-02-19T09:14:31.150Z,9.20
2019-02-19T09:17:01.465Z,9.70
2019-02-19T09:19:34.337Z,9.57
2019-02-19T09:22:05.703Z,8.93
2019-02-19T09:24:37.427Z,8.80
2019-02-19T09:27:08.664Z,8.78
2019-02-19T09:29:38.754Z,7.93
2019-02-19T09:32:08.896Z,8.07
2019-02-19T09:34:38.996Z,7.53
2019-02-19T09:37:09.291Z,9.47
2019-02-19T09:39:39.570Z,8.67
2019-02-19T09:42:09.797Z,7.90
2019-02-19T09:44:39.875Z,8.30
2019-02-19T09:47:10.002Z,8.40
2019-02-19T09:49:42.401Z,7.10
2019-02-19T09:52:12.798Z,7.53
2019-02-19T09:54:42.950Z,6.50
2019-02-19T09:57:14.658Z,7.80
2019-02-19T09:59:44.799Z,8.13
2019-02-19T10:02:14.924Z,7.60
2019-02-19T10:04:45.046Z,5.57
2019-02-19T10:07:15.143Z,6.73
2019-02-19T10:09:46.806Z,6.53
2019-02-19T10:12:16.884Z,7.17
2019-02-19T10:14:46.982Z,7.43
2019-02-19T10:17:17.079Z,6.73
2019-02-19T10:19:47.196Z,7.00
2019-02-19T10:22:17.267Z,7.10
2019-02-19T10:24:47.612Z,6.77
2019-02-19T10:27:17.971Z,7.20
2019-02-19T10:29:49.070Z,6.20
2019-02-19T10:32:19.192Z,7.17
2019-02-19T10:34:49.351Z,6.27
2019-02-19T10:37:19.762Z,6.95
2019-02-19T10:39:49.872Z,7.50
2019-02-19T10:42:20.129Z,6.47
2019-02-19T10:44:50.269Z,6.60
2019-02-19T10:47:20.381Z,7.57
2019-02-19T10:49:50.767Z,6.87
2019-02-19T10:52:20.976Z,7.30
2019-02-19T10:54:51.249Z,7.67
2019-02-19T10:57:21.899Z,6.72
2019-02-19T10:59:52.068Z,6.67
2019-02-19T11:02:22.157Z,6.47
2019-02-19T11:04:53.301Z,7.33
2019-02-19T11:07:23.393Z,7.47
2019-02-19T11:09:53.598Z,6.73
2019-02-19T11:12:24.077Z,6.20
2019-02-19T11:14:57.187Z,6.27
2019-02-19T11:17:27.414Z,5.83
2019-02-19T11:19:57.494Z,7.50
2019-02-19T11:22:27.651Z,7.00
2019-02-19T11:24:58.073Z,7.00
2019-02-19T11:27:28.092Z,7.43
2019-02-19T11:29:58.239Z,7.37
2019-02-19T11:32:28.488Z,7.27
2019-02-19T11:34:58.658Z,7.70
2019-02-19T11:37:29.118Z,7.10
2019-02-19T11:39:59.206Z,6.60
2019-02-19T11:42:29.321Z,6.30
2019-02-19T11:44:59.607Z,6.67
2019-02-19T11:47:29.766Z,7.40
2019-02-19T11:50:00.024Z,7.13
2019-02-19T11:52:30.157Z,7.07
2019-02-19T11:55:00.395Z,7.50
2019-02-19T11:57:30.523Z,7.03
2019-02-19T12:00:00.667Z,7.90
2019-02-19T12:02:32.932Z,7.10
2019-02-19T12:05:02.553Z,6.80
2019-02-19T12:07:32.686Z,7.60
2019-02-19T12:10:02.784Z,6.80
2019-02-19T12:12:33.163Z,6.77
2019-02-19T12:15:03.323Z,7.00
2019-02-19T12:17:33.431Z,6.40
2019-02-19T12:20:03.717Z,6.93
2019-02-19T12:22:35.294Z,6.40
2019-02-19T12:25:05.830Z,5.97
2019-02-19T12:27:36.392Z,7.07
2019-02-19T12:30:07.730Z,7.03
2019-02-19T12:32:37.909Z,7.13
2019-02-19T12:35:10.078Z,7.28
2019-02-19T12:37:40.412Z,7.67
2019-02-19T12:40:11.222Z,7.43
2019-02-19T12:42:41.361Z,6.97
2019-02-19T12:45:11.875Z,7.00
2019-02-19T12:47:42.251Z,7.00
2019-02-19T12:50:13.391Z,6.73
2019-02-19T12:52:43.612Z,6.80
2019-02-19T12:55:13.851Z,6.90
2019-02-19T12:57:44.013Z,7.27
2019-02-19T13:00:15.667Z,7.53
2019-02-19T13:02:45.803Z,7.00
2019-02-19T13:05:16.023Z,6.77
2019-02-19T13:07:47.098Z,6.93
2019-02-19T13:10:17.859Z,6.90
2019-02-19T13:12:49.144Z,7.10
2019-02-19T13:15:19.448Z,7.07
2019-02-19T13:17:49.559Z,6.73
2019-02-19T13:20:19.729Z,6.70
2019-02-19T13:22:49.951Z,6.83
2019-02-19T13:25:20.605Z,6.90
2019-02-19T13:27:50.753Z,6.23
2019-02-19T13:30:20.785Z,6.50
2019-02-19T13:32:50.943Z,6.40
2019-02-19T13:35:21.216Z,6.13
2019-02-19T13:37:51.482Z,7.00
2019-02-19T13:40:21.725Z,6.10
2019-02-19T13:42:51.881Z,4.93
2019-02-19T13:45:21.914Z,5.60
2019-02-19T13:47:52.001Z,6.27
2019-02-19T13:50:22.207Z,5.70
2019-02-19T13:52:58.095Z,5.40
2019-02-19T13:55:32.187Z,5.90
2019-02-19T13:58:03.296Z,5.67
2019-02-19T14:00:35.211Z,5.40
2019-02-19T14:03:05.418Z,4.80
2019-02-19T14:05:35.653Z,5.13
2019-02-19T14:08:13.998Z,5.40
2019-02-19T14:10:37.702Z,4.93
2019-02-19T14:13:07.869Z,5.40
2019-02-19T14:15:56.782Z,5.90
2019-02-19T14:18:46.081Z,4.90
2019-02-19T14:21:34.222Z,5.30
2019-02-19T14:24:11.833Z,5.33
2019-02-19T14:27:03.964Z,5.23
2019-02-19T14:30:08.165Z,4.70
2019-02-19T14:33:15.767Z,4.87
2019-02-19T14:36:03.251Z,5.30
2019-02-19T14:38:52.828Z,5.87
2019-02-19T14:41:51.284Z,5.57
2019-02-19T14:44:38.984Z,4.67
2019-02-19T14:47:27.688Z,5.30
2019-02-19T14:50:24.342Z,5.30
2019-02-19T14:53:16.227Z,4.83
2019-02-19T14:56:17.543Z,5.23
2019-02-19T14:59:16.219Z,5.70
2019-02-19T15:02:11.752Z,5.50
2019-02-19T15:05:10.039Z,6.10
2019-02-19T15:08:11.377Z,5.77
2019-02-19T15:11:00.768Z,5.27
2019-02-19T15:13:38.552Z,6.00
2019-02-19T15:16:23.208Z,5.23
2019-02-19T15:19:02.610Z,6.30
2019-02-19T15:21:46.498Z,6.07
2019-02-19T15:24:36.909Z,5.90
2019-02-19T15:27:28.410Z,5.80
2019-02-19T15:30:32.925Z,5.70
2019-02-19T15:33:16.252Z,5.87
2019-02-19T15:36:19.989Z,5.40
2019-02-19T15:39:11.408Z,5.80
2019-02-19T15:41:59.438Z,5.80
2019-02-19T15:44:47.328Z,6.30
2019-02-19T15:47:41.206Z,5.90
2019-02-19T15:50:39.519Z,6.20
2019-02-19T15:53:44.402Z,6.35
2019-02-19T15:56:32.243Z,5.83
2019-02-19T15:59:27.400Z,6.67
2019-02-19T16:02:08.499Z,5.83
2019-02-19T16:04:48.165Z,5.40
2019-02-19T16:07:25.045Z,6.97
2019-02-19T16:10:04.378Z,6.60
2019-02-19T16:12:45.187Z,6.20
2019-02-19T16:15:27.014Z,6.10
2019-02-19T16:18:04.967Z,6.43
2019-02-19T16:20:59.999Z,6.33
2019-02-19T16:23:48.172Z,6.90
2019-02-19T16:26:32.207Z,7.20
2019-02-19T16:29:20.870Z,7.10
2019-02-19T16:32:05.030Z,7.97
2019-02-19T16:34:54.655Z,7.27
2019-02-19T16:37:42.627Z,6.67
2019-02-19T16:40:41.641Z,6.90
2019-02-19T16:43:23.124Z,6.97
2019-02-19T16:46:12.505Z,7.20
2019-02-19T16:49:01.657Z,6.90
2019-02-19T16:51:46.625Z,7.07
2019-02-19T16:54:24.918Z,6.83
2019-02-19T16:57:07.235Z,7.37
2019-02-19T16:59:46.040Z,7.90
2019-02-19T17:02:35.386Z,8.40
2019-02-19T17:05:27.978Z,7.60
2019-02-19T17:08:08.009Z,7.27
2019-02-19T17:11:12.819Z,8.33
2019-02-19T17:14:03.473Z,8.57
2019-02-19T17:16:58.776Z,7.80
2019-02-19T17:19:46.518Z,7.43
2019-02-19T17:22:26.445Z,7.90
2019-02-19T17:25:33.638Z,7.30
2019-02-19T17:28:28.650Z,7.87
2019-02-19T17:31:16.630Z,8.23
2019-02-19T17:34:11.546Z,8.27
2019-02-19T17:37:03.428Z,8.40
2019-02-19T17:39:51.129Z,8.10
2019-02-19T17:42:30.176Z,9.20
2019-02-19T17:45:14.580Z,8.53
2019-02-19T17:48:12.686Z,9.10
2019-02-19T17:51:07.969Z,8.90
2019-02-19T17:53:48.509Z,8.70
2019-02-19T17:56:36.436Z,8.85
2019-02-19T17:59:28.455Z,7.20
2019-02-19T18:02:05.275Z,8.70
2019-02-19T18:04:48.504Z,9.20
2019-02-19T18:07:36.467Z,8.90
2019-02-19T18:10:41.813Z,9.60
2019-02-19T18:13:43.107Z,9.17
2019-02-19T18:16:21.384Z,12.00
2019-02-19T18:18:51.915Z,12.57
2019-02-19T18:21:22.196Z,9.37
2019-02-19T18:23:52.512Z,8.90
2019-02-19T18:26:23.047Z,9.50
2019-02-19T18:28:53.192Z,9.30
2019-02-19T18:31:23.524Z,9.80
2019-02-19T18:33:55.263Z,9.03
2019-02-19T18:36:25.413Z,10.53
2019-02-19T18:38:55.747Z,9.80
2019-02-19T18:41:25.933Z,8.87
2019-02-19T18:43:56.289Z,10.63
2019-02-19T18:46:28.090Z,10.27
2019-02-19T18:48:58.436Z,11.73
2019-02-19T18:51:28.992Z,11.73
2019-02-19T18:53:59.125Z,10.47
2019-02-19T18:56:29.722Z,11.73
2019-02-19T18:59:00.098Z,11.77
2019-02-19T19:01:30.606Z,12.50
2019-02-19T19:04:01.089Z,11.53
2019-02-19T19:06:31.614Z,11.70
2019-02-19T19:09:02.075Z,12.93
2019-02-19T19:11:33.273Z,11.90
2019-02-19T19:14:04.535Z,12.30
2019-02-19T19:16:34.963Z,12.13
2019-02-19T19:19:05.155Z,12.77
2019-02-19T19:21:35.424Z,11.77
2019-02-19T19:24:05.638Z,12.27
2019-02-19T19:26:36.054Z,14.80
2019-02-19T19:29:06.238Z,13.53
2019-02-19T19:31:36.440Z,12.57
2019-02-19T19:34:06.846Z,13.50
2019-02-19T19:36:37.022Z,12.70
2019-02-19T19:39:08.043Z,13.23
2019-02-19T19:41:39.676Z,13.20
2019-02-19T19:44:14.471Z,12.97
2019-02-19T19:46:44.704Z,13.67
2019-02-19T19:49:15.086Z,13.57
2019-02-19T19:51:45.363Z,14.27
2019-02-19T19:54:15.851Z,13.30
2019-02-19T19:56:46.306Z,14.43
2019-02-19T19:59:17.715Z,14.20
2019-02-19T20:01:48.202Z,14.70
2019-02-19T20:04:19.047Z,16.20
2019-02-19T20:06:49.251Z,14.93
2019-02-19T20:09:19.373Z,14.60
2019-02-19T20:11:49.577Z,14.47
2019-02-19T20:14:19.773Z,13.85
2019-02-19T20:16:50.258Z,13.90
2019-02-19T20:19:20.883Z,15.50
2019-02-19T20:21:51.259Z,15.17
2019-02-19T20:24:21.502Z,15.00
2019-02-19T20:26:51.768Z,15.90
2019-02-19T20:29:28.640Z,13.60
2019-02-19T20:32:00.121Z,14.50
2019-02-19T20:34:30.270Z,16.20
2019-02-19T20:37:00.413Z,17.43
2019-02-19T20:39:30.622Z,16.20
2019-02-19T20:42:00.800Z,15.70
2019-02-19T20:44:31.699Z,15.20
2019-02-19T20:47:01.995Z,16.30
2019-02-19T20:49:32.838Z,16.13
2019-02-19T20:52:03.290Z,16.50
2019-02-19T20:54:33.573Z,15.53
2019-02-19T20:57:03.868Z,16.03
2019-02-19T20:59:34.472Z,15.07
2019-02-19T21:02:06.372Z,14.93
2019-02-19T21:04:36.481Z,15.87
2019-02-19T21:07:07.150Z,16.00
2019-02-19T21:09:43.662Z,16.20
2019-02-19T21:12:11.650Z,17.95
2019-02-19T21:14:41.828Z,16.53
2019-02-19T21:17:13.564Z,17.30
2019-02-19T21:19:43.816Z,16.20
2019-02-19T21:22:14.070Z,15.20
2019-02-19T21:24:44.371Z,16.20
2019-02-19T21:27:15.140Z,16.77
2019-02-19T21:29:45.662Z,16.40
2019-02-19T21:32:15.839Z,16.60
2019-02-19T21:34:50.432Z,17.30
2019-02-19T21:37:20.850Z,16.97
2019-02-19T21:39:50.966Z,18.10
2019-02-19T21:42:22.019Z,15.85
2019-02-19T21:44:52.392Z,15.93
2019-02-19T21:47:22.821Z,17.40
2019-02-19T21:49:53.007Z,18.50
2019-02-19T21:52:23.219Z,16.80
2019-02-19T21:54:53.698Z,18.30
2019-02-19T21:57:25.029Z,17.90
2019-02-19T21:59:55.497Z,19.03
2019-02-19T22:02:26.991Z,16.93
2019-02-19T22:04:57.256Z,16.40
2019-02-19T22:07:27.726Z,17.82
2019-02-19T22:09:58.005Z,18.40
2019-02-19T22:12:28.138Z,17.97
2019-02-19T22:14:59.898Z,17.53
2019-02-19T22:17:30.103Z,16.67
2019-02-19T22:20:03.137Z,17.03
2019-02-19T22:22:34.316Z,17.90
2019-02-19T22:25:04.863Z,17.43
2019-02-19T22:27:35.108Z,16.03
2019-02-19T22:30:05.648Z,17.27
2019-02-19T22:32:35.883Z,16.93
2019-02-19T22:35:06.361Z,17.17
2019-02-19T22:37:36.773Z,18.43
2019-02-19T22:40:07.431Z,16.73
2019-02-19T22:42:37.713Z,17.70
2019-02-19T22:45:07.803Z,17.67
2019-02-19T22:47:38.018Z,15.90
2019-02-19T22:50:08.552Z,16.10
2019-02-19T22:52:38.862Z,17.50
2019-02-19T22:55:27.253Z,15.63
2019-02-19T22:57:57.606Z,15.33
2019-02-19T23:00:49.452Z,16.03
2019-02-19T23:03:25.239Z,15.43
2019-02-19T23:05:55.392Z,14.80
2019-02-19T23:08:25.982Z,14.03
2019-02-19T23:10:56.127Z,14.40
2019-02-19T23:13:26.313Z,14.90
2019-02-19T23:15:56.498Z,14.13
2019-02-19T23:18:26.860Z,14.25
2019-02-19T23:20:56.944Z,15.03
2019-02-19T23:23:27.065Z,13.00
2019-02-19T23:25:57.222Z,14.53
2019-02-19T23:28:27.326Z,13.67
2019-02-19T23:30:58.614Z,13.77
2019-02-19T23:33:29.088Z,12.43
2019-02-19T23:36:06.493Z,13.47
2019-02-19T23:38:36.562Z,12.80
2019-02-19T23:41:07.211Z,13.00
2019-02-19T23:43:37.564Z,14.10
2019-02-19T23:46:08.080Z,13.77
2019-02-19T23:48:40.874Z,13.13
2019-02-19T23:51:12.029Z,13.73
2019-02-19T23:53:42.212Z,12.47
2019-02-19T23:56:12.391Z,13.90
2019-02-19T23:58:42.459Z,12.43
